createdAt,value
2023-03-03T00:12:25.470Z,18.57
2023-03-03T00:27:26.121Z,13.13
2023-03-03T00:42:25.919Z,16.22
2023-03-03T00:57:25.768Z,15.35
2023-03-03T01:12:25.591Z,12.63
2023-03-03T01:27:25.684Z,13.62
2023-03-03T01:42:25.726Z,13
2023-03-03T01:57:25.818Z,11.16
2023-03-03T02:12:26.050Z,13.75
2023-03-03T02:27:25.331Z,14.58
2023-03-03T02:42:25.206Z,14.13
2023-03-03T02:57:25.438Z,13.81
2023-03-03T03:12:25.841Z,14.82
2023-03-03T03:27:25.814Z,12.39
2023-03-03T03:42:25.778Z,9.93
2023-03-03T03:57:26.730Z,9.83
2023-03-03T04:12:25.924Z,10.08
2023-03-03T04:27:25.875Z,6.64
2023-03-03T04:42:25.522Z,6.37
2023-03-03T04:57:25.684Z,9.93
2023-03-03T05:12:25.431Z,9.37
2023-03-03T05:27:25.706Z,9.12
2023-03-03T05:42:27.115Z,12.92
2023-03-03T05:57:25.532Z,10.25
2023-03-03T06:12:25.434Z,10.13
2023-03-03T06:27:25.776Z,9.19
2023-03-03T06:42:25.721Z,12.17
2023-03-03T06:57:25.916Z,14.57
2023-03-03T07:12:25.648Z,10.4
2023-03-03T07:27:25.986Z,11.45
2023-03-03T07:42:25.709Z,17.11
2023-03-03T07:57:25.715Z,15.86
2023-03-03T08:12:25.646Z,10.42
2023-03-03T08:27:25.225Z,12.55
2023-03-03T08:42:25.882Z,13.28
2023-03-03T08:57:25.290Z,13.5
2023-03-03T09:12:25.210Z,9.2
2023-03-03T09:27:25.955Z,16.66
2023-03-03T09:42:25.718Z,14.89
2023-03-03T09:57:25.567Z,13.17
2023-03-03T10:12:25.427Z,12.97
2023-03-03T10:27:26.299Z,11.2
2023-03-03T10:42:25.551Z,17.41
2023-03-03T10:57:26.204Z,21.08
2023-03-03T11:12:25.628Z,15.85
2023-03-03T11:27:25.639Z,10.99
2023-03-03T11:42:26.061Z,11.63
2023-03-03T11:57:25.964Z,14.35
2023-03-03T12:12:25.407Z,20.11
2023-03-03T12:27:25.852Z,24.02
2023-03-03T12:42:25.865Z,29.15
2023-03-03T12:57:25.928Z,32.14
2023-03-03T13:12:25.500Z,35.65
2023-03-03T13:27:25.224Z,36.05
2023-03-03T13:42:25.392Z,38.24
2023-03-03T13:57:25.877Z,36.49
2023-03-03T14:12:25.184Z,37.22
2023-03-03T14:27:25.432Z,39.16
2023-03-03T14:42:26.946Z,40.9
2023-03-03T14:57:25.291Z,39.88
2023-03-03T15:12:25.389Z,43.65
2023-03-03T15:27:26.181Z,43.01
2023-03-03T15:42:25.702Z,43.5
2023-03-03T15:57:25.584Z,42.8
2023-03-03T16:12:25.437Z,48.55
2023-03-03T16:27:25.655Z,47.1
2023-03-03T16:42:25.284Z,45.6
2023-03-03T16:57:25.360Z,44.93
2023-03-03T17:12:25.559Z,45.44
2023-03-03T17:27:25.963Z,48.25
2023-03-03T17:42:25.315Z,48.27
2023-03-03T17:57:26.045Z,46.24
2023-03-03T18:12:25.646Z,50.01
2023-03-03T18:27:25.604Z,50.12
2023-03-03T18:42:25.794Z,47.74
2023-03-03T18:57:26.163Z,57.03
2023-03-03T19:12:25.394Z,57.24
2023-03-03T19:27:26.075Z,45.41
2023-03-03T19:42:25.520Z,42
2023-03-03T19:57:25.994Z,42.5
2023-03-03T20:12:25.290Z,44.54
2023-03-03T20:27:25.537Z,43.1
2023-03-03T20:42:26.008Z,46.33
2023-03-03T20:57:25.896Z,44.79
2023-03-03T21:12:25.709Z,43.79
2023-03-03T21:27:25.937Z,44.54
2023-03-03T21:42:25.594Z,50.41
2023-03-03T21:57:25.877Z,43.37
2023-03-03T22:12:26.093Z,42.97
2023-03-03T22:27:25.394Z,35.56
2023-03-03T22:42:25.476Z,33.1
2023-03-03T22:57:26.034Z,29
2023-03-03T23:12:25.425Z,30.07
2023-03-03T23:27:26.052Z,35.18
2023-03-03T23:42:25.334Z,37.66
2023-03-03T23:57:25.277Z,33.12
